createdAt,value
2023-04-30T00:00:08.049Z,1.60
2023-04-30T00:02:35.354Z,1.80
2023-04-30T00:05:02.610Z,1.60
2023-04-30T00:07:29.962Z,1.60
2023-04-30T00:09:56.961Z,2.40
2023-04-30T00:12:24.276Z,1.70
2023-04-30T00:14:51.546Z,1.60
2023-04-30T00:17:18.914Z,1.75
2023-04-30T00:19:45.761Z,1.63
2023-04-30T00:22:12.591Z,2.03
2023-04-30T00:24:39.891Z,1.55
2023-04-30T00:27:06.706Z,1.60
2023-04-30T00:29:33.557Z,1.40
2023-04-30T00:32:01.114Z,1.50
2023-04-30T00:34:28.117Z,1.67
2023-04-30T00:36:54.960Z,1.67
2023-04-30T00:39:22.054Z,1.27
2023-04-30T00:41:49.310Z,1.40
2023-04-30T00:44:16.167Z,1.45
2023-04-30T00:46:43.618Z,1.50
2023-04-30T00:49:10.642Z,1.50
2023-04-30T00:51:42.102Z,1.83
2023-04-30T00:54:09.408Z,1.58
2023-04-30T00:56:36.470Z,1.50
2023-04-30T00:59:03.417Z,1.42
2023-04-30T01:01:30.691Z,1.55
2023-04-30T01:03:57.831Z,1.30
2023-04-30T01:06:26.920Z,1.50
2023-04-30T01:08:54.216Z,1.55
2023-04-30T01:11:35.393Z,1.70
2023-04-30T01:14:18.327Z,1.58
2023-04-30T01:16:55.264Z,1.40
2023-04-30T01:19:28.239Z,1.50
2023-04-30T01:22:03.488Z,1.50
2023-04-30T01:24:30.279Z,1.27
2023-04-30T01:27:35.034Z,1.60
2023-04-30T01:30:05.031Z,1.55
2023-04-30T01:32:31.950Z,1.55
2023-04-30T01:34:59.758Z,1.65
2023-04-30T01:37:43.884Z,1.55
2023-04-30T01:40:24.723Z,1.58
2023-04-30T01:43:05.569Z,1.63
2023-04-30T01:46:03.937Z,1.85
2023-04-30T01:49:03.570Z,1.67
2023-04-30T01:51:56.084Z,1.40
2023-04-30T01:54:41.017Z,2.10
2023-04-30T01:57:11.606Z,1.60
2023-04-30T01:59:40.636Z,1.80
2023-04-30T02:02:07.430Z,1.60
2023-04-30T02:04:34.408Z,1.55
2023-04-30T02:07:02.193Z,1.60
2023-04-30T02:09:29.189Z,1.63
2023-04-30T02:11:57.836Z,1.42
2023-04-30T02:14:25.857Z,1.45
2023-04-30T02:16:52.622Z,1.52
2023-04-30T02:19:19.462Z,1.70
2023-04-30T02:21:47.178Z,1.70
2023-04-30T02:24:14.137Z,1.90
2023-04-30T02:26:41.045Z,2.10
2023-04-30T02:29:07.987Z,1.45
2023-04-30T02:31:34.808Z,1.48
2023-04-30T02:34:01.712Z,1.50
2023-04-30T02:36:28.568Z,1.73
2023-04-30T02:38:55.428Z,1.95
2023-04-30T02:41:22.326Z,1.80
2023-04-30T02:43:49.243Z,1.50
2023-04-30T02:46:16.094Z,1.67
2023-04-30T02:48:43.681Z,1.70
2023-04-30T02:51:10.584Z,1.50
2023-04-30T02:53:37.826Z,1.77
2023-04-30T02:56:05.517Z,1.83
2023-04-30T02:58:32.427Z,1.75
2023-04-30T03:00:59.775Z,1.60
2023-04-30T03:03:26.992Z,1.48
2023-04-30T03:05:56.623Z,1.98
2023-04-30T03:08:23.556Z,1.60
2023-04-30T03:10:50.406Z,1.50
2023-04-30T03:13:17.936Z,1.90
2023-04-30T03:15:45.050Z,1.50
2023-04-30T03:18:11.910Z,1.48
2023-04-30T03:20:38.729Z,1.60
2023-04-30T03:23:05.611Z,1.60
2023-04-30T03:25:32.866Z,1.50
2023-04-30T03:27:59.830Z,2.03
2023-04-30T03:30:26.682Z,1.70
2023-04-30T03:32:53.562Z,1.42
2023-04-30T03:35:20.415Z,1.50
2023-04-30T03:37:47.261Z,1.60
2023-04-30T03:40:14.130Z,1.52
2023-04-30T03:42:40.993Z,1.63
2023-04-30T03:45:08.222Z,1.80
2023-04-30T03:47:36.642Z,1.70
2023-04-30T03:50:04.135Z,1.65
2023-04-30T03:52:31.479Z,1.50
2023-04-30T03:54:58.304Z,1.95
2023-04-30T03:57:25.214Z,1.67
2023-04-30T03:59:52.358Z,1.63
2023-04-30T04:02:19.412Z,1.70
2023-04-30T04:04:46.324Z,1.58
2023-04-30T04:07:13.203Z,2.17
2023-04-30T04:09:40.102Z,1.73
2023-04-30T04:12:07.986Z,1.58
2023-04-30T04:14:34.848Z,1.70
2023-04-30T04:17:02.114Z,2.22
2023-04-30T04:19:29.083Z,1.70
2023-04-30T04:21:55.993Z,2.00
2023-04-30T04:24:25.217Z,1.77
2023-04-30T04:26:52.120Z,2.10
2023-04-30T04:29:19.638Z,1.80
2023-04-30T04:31:49.047Z,1.85
2023-04-30T04:34:15.916Z,1.80
2023-04-30T04:36:43.352Z,2.15
2023-04-30T04:39:10.334Z,1.70
2023-04-30T04:41:37.921Z,1.77
2023-04-30T04:44:05.213Z,1.75
2023-04-30T04:46:32.605Z,1.90
2023-04-30T04:49:00.519Z,1.88
2023-04-30T04:51:27.354Z,1.70
2023-04-30T04:53:54.581Z,1.90
2023-04-30T04:56:21.466Z,1.90
2023-04-30T04:58:48.326Z,2.08
2023-04-30T05:01:15.371Z,1.73
2023-04-30T05:03:43.044Z,1.73
2023-04-30T05:06:09.976Z,1.70
2023-04-30T05:08:36.967Z,1.67
2023-04-30T05:11:04.313Z,1.90
2023-04-30T05:13:32.898Z,1.77
2023-04-30T05:16:00.162Z,1.85
2023-04-30T05:18:27.199Z,2.00
2023-04-30T05:20:54.998Z,2.20
2023-04-30T05:23:22.486Z,1.85
2023-04-30T05:25:53.571Z,1.90
2023-04-30T05:28:20.423Z,1.90
2023-04-30T05:30:47.390Z,1.98
2023-04-30T05:33:14.234Z,2.28
2023-04-30T05:35:41.964Z,1.70
2023-04-30T05:38:08.785Z,2.00
2023-04-30T05:40:35.794Z,1.90
2023-04-30T05:43:02.748Z,1.70
2023-04-30T05:45:29.965Z,1.63
2023-04-30T05:47:57.206Z,2.05
2023-04-30T05:50:24.478Z,1.90
2023-04-30T05:52:51.320Z,2.13
2023-04-30T05:55:18.174Z,1.88
2023-04-30T05:57:45.770Z,1.80
2023-04-30T06:00:13.963Z,1.85
2023-04-30T06:02:41.818Z,1.92
2023-04-30T06:05:09.226Z,2.30
2023-04-30T06:07:36.205Z,2.42
2023-04-30T06:10:03.863Z,2.30
2023-04-30T06:12:31.375Z,1.80
2023-04-30T06:14:58.668Z,2.28
2023-04-30T06:17:25.902Z,2.00
2023-04-30T06:19:53.192Z,2.08
2023-04-30T06:22:20.641Z,2.10
2023-04-30T06:24:47.622Z,2.63
2023-04-30T06:27:14.533Z,2.10
2023-04-30T06:29:41.820Z,2.30
2023-04-30T06:32:08.730Z,2.50
2023-04-30T06:34:37.087Z,2.60
2023-04-30T06:37:03.957Z,2.70
2023-04-30T06:39:30.824Z,2.75
2023-04-30T06:41:57.710Z,2.90
2023-04-30T06:44:24.662Z,2.85
2023-04-30T06:46:51.754Z,2.45
2023-04-30T06:49:18.661Z,2.72
2023-04-30T06:51:45.524Z,3.40
2023-04-30T06:54:12.591Z,2.85
2023-04-30T06:56:39.521Z,3.42
2023-04-30T06:59:06.710Z,3.00
2023-04-30T07:01:33.676Z,2.88
2023-04-30T07:04:01.596Z,2.90
2023-04-30T07:06:28.651Z,2.67
2023-04-30T07:08:55.560Z,2.70
2023-04-30T07:11:23.469Z,2.92
2023-04-30T07:13:50.717Z,3.00
2023-04-30T07:16:17.545Z,2.70
2023-04-30T07:18:44.681Z,2.80
2023-04-30T07:21:11.525Z,2.65
2023-04-30T07:23:38.323Z,3.15
2023-04-30T07:26:05.470Z,2.85
2023-04-30T07:28:32.276Z,2.75
2023-04-30T07:30:59.131Z,3.08
2023-04-30T07:33:25.904Z,2.55
2023-04-30T07:35:52.763Z,2.83
2023-04-30T07:38:19.681Z,2.72
2023-04-30T07:40:49.414Z,2.88
2023-04-30T07:43:16.457Z,2.60
2023-04-30T07:45:44.480Z,2.20
2023-04-30T07:48:11.953Z,2.10
2023-04-30T07:50:40.342Z,2.65
2023-04-30T07:53:09.708Z,2.20
2023-04-30T07:55:36.597Z,2.08
2023-04-30T07:58:06.608Z,2.25
2023-04-30T08:00:34.332Z,2.22
2023-04-30T08:03:01.656Z,1.90
2023-04-30T08:05:28.924Z,1.85
2023-04-30T08:07:56.312Z,1.88
2023-04-30T08:10:23.443Z,2.20
2023-04-30T08:12:50.728Z,1.88
2023-04-30T08:15:19.238Z,2.03
2023-04-30T08:17:46.570Z,2.10
2023-04-30T08:20:13.401Z,2.45
2023-04-30T08:22:40.556Z,2.25
2023-04-30T08:25:12.158Z,2.13
2023-04-30T08:27:39.468Z,2.25
2023-04-30T08:30:07.680Z,2.40
2023-04-30T08:32:38.474Z,2.03
2023-04-30T08:35:06.242Z,2.28
2023-04-30T08:37:33.474Z,1.92
2023-04-30T08:40:00.759Z,2.28
2023-04-30T08:42:37.305Z,1.88
2023-04-30T08:45:06.858Z,1.88
2023-04-30T08:47:34.639Z,2.05
2023-04-30T08:50:02.874Z,1.60
2023-04-30T08:52:40.106Z,1.90
2023-04-30T08:55:08.940Z,1.90
2023-04-30T08:57:36.935Z,1.85
2023-04-30T09:00:06.090Z,1.90
2023-04-30T09:02:34.192Z,1.90
2023-04-30T09:05:01.256Z,1.90
2023-04-30T09:07:31.359Z,1.80
2023-04-30T09:10:00.610Z,1.58
2023-04-30T09:12:29.444Z,1.85
2023-04-30T09:15:08.977Z,2.00
2023-04-30T09:17:37.445Z,1.65
2023-04-30T09:20:12.523Z,1.70
2023-04-30T09:22:41.554Z,1.85
2023-04-30T09:25:10.017Z,1.70
2023-04-30T09:27:37.650Z,1.67
2023-04-30T09:30:04.882Z,1.60
2023-04-30T09:32:32.099Z,1.58
2023-04-30T09:34:58.924Z,1.90
2023-04-30T09:37:38.795Z,1.70
2023-04-30T09:40:06.614Z,1.65
2023-04-30T09:42:33.972Z,1.67
2023-04-30T09:45:04.661Z,1.42
2023-04-30T09:47:33.272Z,1.50
2023-04-30T09:50:01.049Z,1.30
2023-04-30T09:52:28.139Z,1.58
2023-04-30T09:54:55.131Z,1.30
2023-04-30T09:57:24.264Z,1.42
2023-04-30T09:59:53.476Z,1.67
2023-04-30T10:02:23.539Z,1.20
2023-04-30T10:04:58.090Z,1.23
2023-04-30T10:07:30.213Z,1.50
2023-04-30T10:10:04.959Z,1.35
2023-04-30T10:12:43.217Z,1.30
2023-04-30T10:15:17.616Z,1.50
2023-04-30T10:17:50.245Z,1.70
2023-04-30T10:20:19.075Z,1.45
2023-04-30T10:22:48.424Z,1.30
2023-04-30T10:25:16.297Z,1.20
2023-04-30T10:27:43.584Z,1.17
2023-04-30T10:30:12.018Z,1.10
2023-04-30T10:33:04.253Z,1.40
2023-04-30T10:35:40.362Z,1.58
2023-04-30T10:40:38.368Z,1.55
2023-04-30T10:43:05.209Z,1.20
2023-04-30T10:45:43.634Z,1.55
2023-04-30T10:48:10.852Z,1.10
2023-04-30T10:50:46.604Z,1.50
2023-04-30T10:53:17.645Z,1.42
2023-04-30T10:55:52.828Z,1.10
2023-04-30T10:58:27.808Z,1.23
2023-04-30T11:01:06.044Z,1.17
2023-04-30T11:03:34.933Z,1.30
2023-04-30T11:06:08.933Z,1.10
2023-04-30T11:08:42.788Z,1.50
2023-04-30T11:11:10.871Z,1.25
2023-04-30T11:13:41.654Z,1.20
2023-04-30T11:16:09.185Z,1.35
2023-04-30T11:18:42.275Z,1.50
2023-04-30T11:21:10.026Z,1.40
2023-04-30T11:23:41.458Z,1.33
2023-04-30T11:26:10.713Z,1.27
2023-04-30T11:28:38.210Z,1.20
2023-04-30T11:31:05.726Z,1.10
2023-04-30T11:33:33.664Z,1.40
2023-04-30T11:36:01.602Z,1.20
2023-04-30T11:38:34.753Z,1.23
2023-04-30T11:41:03.260Z,1.45
2023-04-30T11:43:31.941Z,1.35
2023-04-30T11:46:10.649Z,1.17
2023-04-30T11:48:40.188Z,0.93
2023-04-30T11:51:17.184Z,1.10
2023-04-30T11:53:49.662Z,1.30
2023-04-30T11:56:24.396Z,1.33
2023-04-30T11:58:57.681Z,1.17
2023-04-30T12:01:27.848Z,1.20
2023-04-30T12:03:56.341Z,1.27
2023-04-30T12:06:25.345Z,1.10
2023-04-30T12:08:55.000Z,1.20
2023-04-30T12:11:25.071Z,1.13
2023-04-30T12:13:57.184Z,1.30
2023-04-30T12:16:25.565Z,1.30
2023-04-30T12:18:52.820Z,1.20
2023-04-30T12:21:22.966Z,1.17
2023-04-30T12:23:50.680Z,1.40
2023-04-30T12:26:17.914Z,1.20
2023-04-30T12:28:48.512Z,1.17
2023-04-30T12:31:19.022Z,1.30
2023-04-30T12:33:54.972Z,1.00
2023-04-30T12:36:22.307Z,0.90
2023-04-30T12:38:49.460Z,1.20
2023-04-30T12:41:17.488Z,1.40
2023-04-30T12:43:44.444Z,1.20
2023-04-30T12:46:11.284Z,1.10
2023-04-30T12:48:45.455Z,0.95
2023-04-30T12:51:12.320Z,1.00
2023-04-30T12:53:46.999Z,1.05
2023-04-30T12:56:18.093Z,1.00
2023-04-30T12:58:48.410Z,1.27
2023-04-30T13:01:21.117Z,1.40
2023-04-30T13:03:48.739Z,1.00
2023-04-30T13:06:15.963Z,1.13
2023-04-30T13:08:57.107Z,1.02
2023-04-30T13:11:26.125Z,0.98
2023-04-30T13:13:55.390Z,1.25
2023-04-30T13:16:23.019Z,1.30
2023-04-30T13:18:49.935Z,1.02
2023-04-30T13:21:17.091Z,1.20
2023-04-30T13:23:51.784Z,1.02
2023-04-30T13:26:19.424Z,0.80
2023-04-30T13:28:46.249Z,0.98
2023-04-30T13:31:13.087Z,1.02
2023-04-30T13:33:39.902Z,1.10
2023-04-30T13:36:07.225Z,1.13
2023-04-30T13:38:33.991Z,0.88
2023-04-30T13:41:01.063Z,0.90
2023-04-30T13:43:28.670Z,0.95
2023-04-30T13:45:55.997Z,1.00
2023-04-30T13:48:23.255Z,0.90
2023-04-30T13:50:54.264Z,1.05
2023-04-30T13:53:21.046Z,1.15
2023-04-30T13:55:48.036Z,0.82
2023-04-30T13:58:15.805Z,1.10
2023-04-30T14:00:43.551Z,1.05
2023-04-30T14:03:11.549Z,0.80
2023-04-30T14:05:39.346Z,0.82
2023-04-30T14:08:06.731Z,1.00
2023-04-30T14:15:56.797Z,0.80
2023-04-30T14:18:24.013Z,1.15
2023-04-30T14:20:51.181Z,0.82
2023-04-30T14:23:18.081Z,1.10
2023-04-30T14:25:45.964Z,0.80
2023-04-30T15:11:40.382Z,0.70
2023-04-30T15:14:07.212Z,0.70
2023-04-30T15:16:34.100Z,0.90
2023-04-30T15:19:01.038Z,0.85
2023-04-30T15:21:28.847Z,0.75
2023-04-30T15:23:55.627Z,0.70
2023-04-30T15:26:22.560Z,0.60
2023-04-30T15:28:49.782Z,0.70
2023-04-30T15:31:16.652Z,0.95
2023-04-30T15:33:43.812Z,0.80
2023-04-30T15:36:11.251Z,0.80
2023-04-30T15:38:38.444Z,0.60
2023-04-30T15:41:05.555Z,0.80
2023-04-30T15:56:30.538Z,0.90
2023-04-30T15:58:58.011Z,0.80
2023-04-30T16:01:26.988Z,0.90
2023-04-30T16:03:55.008Z,0.80
2023-04-30T16:06:23.752Z,0.80
2023-04-30T16:08:50.896Z,0.85
2023-04-30T16:11:17.811Z,0.93
2023-04-30T16:13:45.486Z,0.82
2023-04-30T16:16:13.837Z,0.90
2023-04-30T16:18:43.328Z,1.02
2023-04-30T16:21:10.405Z,1.05
2023-04-30T16:23:37.990Z,0.73
2023-04-30T16:26:05.603Z,0.65
2023-04-30T16:28:34.018Z,0.98
2023-04-30T16:31:01.776Z,0.80
2023-04-30T16:34:39.431Z,0.80
2023-04-30T17:54:45.857Z,1.30
2023-04-30T17:57:13.077Z,1.10
2023-04-30T17:59:40.048Z,1.50
2023-04-30T18:15:08.699Z,1.00
2023-04-30T18:17:37.434Z,0.95
2023-04-30T18:20:05.173Z,1.02
2023-04-30T18:22:32.065Z,1.00
2023-04-30T18:24:59.574Z,0.90
2023-04-30T18:27:27.679Z,1.13
2023-04-30T18:29:56.703Z,0.73
2023-04-30T18:32:26.282Z,1.40
2023-04-30T19:49:00.900Z,1.13
2023-04-30T21:23:12.680Z,3.97
2023-04-30T21:25:40.093Z,3.50
2023-04-30T21:28:06.973Z,3.75
2023-04-30T21:30:35.461Z,3.53
2023-04-30T21:33:02.535Z,3.13
2023-04-30T21:35:30.288Z,3.55
2023-04-30T21:37:57.076Z,3.67
2023-04-30T21:40:24.007Z,3.10
2023-04-30T21:42:52.540Z,2.90
2023-04-30T21:45:19.771Z,3.30
2023-04-30T21:47:47.887Z,3.58
2023-04-30T21:50:14.926Z,3.50
2023-04-30T21:52:42.124Z,3.22
2023-04-30T21:55:09.712Z,3.20
2023-04-30T21:57:36.738Z,3.00
2023-04-30T22:00:06.750Z,2.70
2023-04-30T22:02:33.716Z,2.47
2023-04-30T22:05:00.911Z,2.58
2023-04-30T22:07:28.156Z,2.40
2023-04-30T22:09:55.845Z,2.58
2023-04-30T22:12:25.021Z,2.83
2023-04-30T22:14:55.277Z,2.67
2023-04-30T22:17:22.631Z,2.80
2023-04-30T22:19:49.497Z,2.60
2023-04-30T22:22:16.776Z,2.63
2023-04-30T22:24:43.934Z,2.50
2023-04-30T22:27:11.093Z,2.60
2023-04-30T22:29:37.930Z,2.50
2023-04-30T22:32:06.320Z,2.60
2023-04-30T22:34:39.367Z,2.15
2023-04-30T22:37:06.772Z,2.25
2023-04-30T22:39:33.546Z,2.25
2023-04-30T22:42:00.396Z,2.17
2023-04-30T22:44:27.524Z,1.88
2023-04-30T22:46:57.918Z,1.80
2023-04-30T22:49:31.700Z,2.00
2023-04-30T22:52:00.047Z,1.50
2023-04-30T22:54:27.282Z,1.60
2023-04-30T22:56:54.212Z,1.55
2023-04-30T22:59:21.268Z,1.73
2023-04-30T23:01:48.380Z,1.40
2023-04-30T23:04:15.462Z,1.40
2023-04-30T23:06:43.006Z,1.77
2023-04-30T23:09:10.147Z,1.58
2023-04-30T23:11:37.007Z,1.92
2023-04-30T23:14:04.940Z,1.30
2023-04-30T23:16:31.891Z,1.73
2023-04-30T23:18:59.033Z,1.33
2023-04-30T23:21:26.777Z,1.60
2023-04-30T23:23:54.037Z,1.60
2023-04-30T23:26:21.318Z,1.35
2023-04-30T23:28:48.231Z,1.30
2023-04-30T23:31:17.939Z,1.50
2023-04-30T23:33:44.965Z,1.10
2023-04-30T23:36:12.231Z,1.50
2023-04-30T23:38:39.170Z,1.40
2023-04-30T23:41:06.208Z,1.30
2023-04-30T23:43:33.017Z,1.33
2023-04-30T23:46:00.228Z,1.67
2023-04-30T23:48:27.223Z,1.50
2023-04-30T23:51:05.005Z,1.40
2023-04-30T23:53:32.156Z,1.67
2023-04-30T23:55:59.140Z,1.58
2023-04-30T23:58:26.504Z,1.50
